createdAt,value
2019-04-21T00:00:11.822Z,56.10
2019-04-21T00:02:42.374Z,56.00
2019-04-21T00:05:49.625Z,56.40
2019-04-21T00:08:01.214Z,57.10
2019-04-21T00:10:35.683Z,57.50
2019-04-21T00:12:54.758Z,57.80
2019-04-21T00:15:19.376Z,57.90
2019-04-21T00:17:39.054Z,58.10
2019-04-21T00:20:20.482Z,58.30
2019-04-21T00:22:52.078Z,58.50
2019-04-21T00:25:23.535Z,58.90
2019-04-21T00:27:57.656Z,59.80
2019-04-21T00:30:27.476Z,59.50
2019-04-21T00:32:53.510Z,59.30
2019-04-21T00:35:14.101Z,59.20
2019-04-21T00:38:00.306Z,59.90
2019-04-21T00:40:39.822Z,60.00
2019-04-21T00:43:00.528Z,60.50
2019-04-21T00:45:23.409Z,60.60
2019-04-21T00:48:05.929Z,60.00
2019-04-21T00:50:40.694Z,59.60
2019-04-21T00:53:04.719Z,59.40
2019-04-21T00:55:45.166Z,60.10
2019-04-21T00:58:17.204Z,60.40
2019-04-21T01:00:46.365Z,60.20
2019-04-21T01:03:17.145Z,60.50
2019-04-21T01:05:48.337Z,60.90
2019-04-21T01:08:13.149Z,60.60
2019-04-21T01:10:33.244Z,60.80
2019-04-21T01:13:15.910Z,60.70
2019-04-21T01:15:43.956Z,60.80
2019-04-21T01:18:10.766Z,61.20
2019-04-21T01:20:21.546Z,62.00
2019-04-21T01:22:49.863Z,62.30
2019-04-21T01:25:27.430Z,62.10
2019-04-21T01:28:05.014Z,63.20
2019-04-21T01:30:43.004Z,63.10
2019-04-21T01:33:08.200Z,62.20
2019-04-21T01:35:39.992Z,62.20
2019-04-21T01:38:06.755Z,61.50
2019-04-21T01:40:43.340Z,62.00
2019-04-21T01:43:07.623Z,63.00
2019-04-21T01:45:37.057Z,62.70
2019-04-21T01:48:06.511Z,63.00
2019-04-21T01:50:36.528Z,62.90
2019-04-21T01:53:18.788Z,63.50
2019-04-21T01:55:54.412Z,63.70
2019-04-21T01:58:25.521Z,63.90
2019-04-21T02:01:00.066Z,64.20
2019-04-21T02:03:54.462Z,64.10
2019-04-21T02:06:11.015Z,64.00
2019-04-21T02:08:34.028Z,63.30
2019-04-21T02:11:05.218Z,63.20
2019-04-21T02:13:35.192Z,63.40
2019-04-21T02:16:06.787Z,63.60
2019-04-21T02:18:35.234Z,64.10
2019-04-21T02:20:53.846Z,64.80
2019-04-21T02:23:43.962Z,65.20
2019-04-21T02:26:08.026Z,65.60
2019-04-21T02:28:42.463Z,66.20
2019-04-21T02:31:22.623Z,66.20
2019-04-21T02:33:48.976Z,66.40
2019-04-21T02:38:48.216Z,67.10
2019-04-21T02:41:05.705Z,67.20
2019-04-21T02:43:46.180Z,67.40
2019-04-21T02:46:13.873Z,67.90
2019-04-21T02:48:48.350Z,67.30
2019-04-21T02:51:23.883Z,67.40
2019-04-21T02:56:18.066Z,66.90
2019-04-21T02:58:53.054Z,66.40
2019-04-21T03:01:40.412Z,67.00
2019-04-21T03:04:32.176Z,67.60
2019-04-21T03:07:12.526Z,67.80
2019-04-21T03:14:46.152Z,68.40
2019-04-21T03:17:09.644Z,68.60
2019-04-21T03:19:48.146Z,68.70
2019-04-21T03:22:14.500Z,68.60
2019-04-21T03:24:54.115Z,68.00
2019-04-21T03:27:35.565Z,67.60
2019-04-21T03:29:37.032Z,68.30
2019-04-21T03:32:31.106Z,67.80
2019-04-21T03:37:19.208Z,68.40
2019-04-21T03:39:44.901Z,68.60
2019-04-21T03:47:15.455Z,68.20
2019-04-21T03:49:47.419Z,68.40
2019-04-21T03:52:11.807Z,68.60
2019-04-21T03:54:41.564Z,68.90
2019-04-21T03:59:38.039Z,70.10
2019-04-21T04:02:23.000Z,69.40
2019-04-21T04:10:02.905Z,69.60
2019-04-21T04:12:28.005Z,69.10
2019-04-21T04:14:55.450Z,69.30
2019-04-21T04:17:25.511Z,69.30
2019-04-21T04:19:54.654Z,69.10
2019-04-21T04:22:31.903Z,69.20
2019-04-21T04:25:04.981Z,69.30
2019-04-21T04:29:59.275Z,70.30
2019-04-21T04:32:28.623Z,70.70
2019-04-21T04:35:03.372Z,71.00
2019-04-21T04:42:40.736Z,71.50
2019-04-21T04:45:14.999Z,71.40
2019-04-21T04:47:37.073Z,71.30
2019-04-21T04:50:07.682Z,71.60
2019-04-21T04:55:03.761Z,71.10
2019-04-21T05:05:15.381Z,71.00
2019-04-21T05:07:43.035Z,71.20
2019-04-21T05:10:18.744Z,71.40
2019-04-21T05:12:29.413Z,71.50
2019-04-21T05:15:04.824Z,71.20
2019-04-21T05:17:37.893Z,71.20
2019-04-21T05:20:08.888Z,70.90
2019-04-21T05:24:50.971Z,70.70
2019-04-21T05:27:54.044Z,70.40
2019-04-21T05:30:26.638Z,70.00
2019-04-21T05:33:00.065Z,70.00
2019-04-21T05:35:46.260Z,69.80
2019-04-21T05:38:16.993Z,71.00
2019-04-21T05:40:39.902Z,70.00
2019-04-21T05:43:17.544Z,69.70
2019-04-21T05:45:50.118Z,69.70
2019-04-21T05:48:28.298Z,69.40
2019-04-21T05:50:56.590Z,69.00
2019-04-21T05:53:42.181Z,68.40
2019-04-21T05:56:03.376Z,67.80
2019-04-21T05:58:28.446Z,67.70
2019-04-21T06:03:44.799Z,66.60
2019-04-21T06:06:20.703Z,64.70
2019-04-21T06:08:52.695Z,63.60
2019-04-21T06:11:13.451Z,63.30
2019-04-21T06:16:07.545Z,61.90
2019-04-21T06:21:10.810Z,61.20
2019-04-21T06:23:40.180Z,60.10
2019-04-21T06:26:28.820Z,59.00
2019-04-21T06:28:46.693Z,58.70
2019-04-21T06:33:46.008Z,57.20
2019-04-21T06:36:30.848Z,56.60
2019-04-21T06:46:33.536Z,54.30
2019-04-21T06:48:57.070Z,53.60
2019-04-21T06:51:27.545Z,53.30
2019-04-21T06:53:59.523Z,52.80
2019-04-21T06:56:30.932Z,51.60
2019-04-21T06:58:51.758Z,50.30
2019-04-21T07:01:26.606Z,49.30
2019-04-21T07:04:01.767Z,49.00
2019-04-21T07:06:28.158Z,48.80
2019-04-21T07:09:06.357Z,47.80
2019-04-21T07:11:19.907Z,47.60
2019-04-21T07:13:55.137Z,46.10
2019-04-21T07:16:26.986Z,45.60
2019-04-21T07:19:00.014Z,44.90
2019-04-21T07:21:31.128Z,45.00
2019-04-21T07:24:00.512Z,44.30
2019-04-21T07:26:25.098Z,43.80
2019-04-21T07:29:01.790Z,42.70
2019-04-21T07:31:31.897Z,44.00
2019-04-21T07:34:00.210Z,42.30
2019-04-21T07:36:38.140Z,40.80
2019-04-21T07:38:57.169Z,40.20
2019-04-21T07:41:18.419Z,41.90
2019-04-21T07:43:53.464Z,39.10
2019-04-21T07:46:22.348Z,38.10
2019-04-21T07:49:01.721Z,38.20
2019-04-21T07:51:52.114Z,36.70
2019-04-21T07:54:26.960Z,36.10
2019-04-21T07:56:33.196Z,35.10
2019-04-21T07:59:25.606Z,35.20
2019-04-21T08:01:50.382Z,35.30
2019-04-21T08:04:38.275Z,35.20
2019-04-21T08:06:49.466Z,34.90
2019-04-21T08:09:11.889Z,34.90
2019-04-21T08:11:45.685Z,34.40
2019-04-21T08:14:19.476Z,32.80
2019-04-21T08:16:56.029Z,32.30
2019-04-21T08:19:18.779Z,31.00
2019-04-21T08:21:57.574Z,30.20
2019-04-21T08:24:32.754Z,29.30
2019-04-21T08:27:03.244Z,29.10
2019-04-21T08:32:06.869Z,29.00
2019-04-21T08:34:28.346Z,29.00
2019-04-21T08:36:54.886Z,29.20
2019-04-21T08:39:32.930Z,28.90
2019-04-21T08:41:55.976Z,28.00
2019-04-21T08:44:35.251Z,27.40
2019-04-21T08:46:58.781Z,27.80
2019-04-21T08:49:26.427Z,27.20
2019-04-21T08:52:04.719Z,26.90
2019-04-21T08:54:30.379Z,26.70
2019-04-21T08:57:10.194Z,26.40
2019-04-21T08:59:51.873Z,26.30
2019-04-21T09:02:26.293Z,24.50
2019-04-21T09:04:52.838Z,24.60
2019-04-21T09:07:28.702Z,24.20
2019-04-21T09:09:51.604Z,21.80
2019-04-21T09:12:22.978Z,21.20
2019-04-21T09:14:54.222Z,20.60
2019-04-21T09:17:19.136Z,20.80
2019-04-21T09:20:13.970Z,18.50
2019-04-21T09:22:16.799Z,19.40
2019-04-21T09:24:53.580Z,18.70
2019-04-21T09:27:23.238Z,19.00
2019-04-21T09:29:39.269Z,18.70
2019-04-21T09:32:08.657Z,19.00
2019-04-21T09:34:40.034Z,18.20
2019-04-21T09:37:16.477Z,17.70
2019-04-21T09:39:38.414Z,17.90
2019-04-21T09:42:04.756Z,17.70
2019-04-21T09:44:37.207Z,17.40
2019-04-21T09:47:05.092Z,17.40
2019-04-21T09:49:35.136Z,18.00
2019-04-21T09:52:08.879Z,17.10
2019-04-21T09:54:37.067Z,16.60
2019-04-21T09:57:07.553Z,16.60
2019-04-21T09:59:37.339Z,16.90
2019-04-21T10:02:10.006Z,16.60
2019-04-21T10:04:33.637Z,16.20
2019-04-21T10:07:02.452Z,16.50
2019-04-21T10:09:31.090Z,15.50
2019-04-21T10:12:00.742Z,16.10
2019-04-21T10:14:29.096Z,14.90
2019-04-21T10:17:15.352Z,15.50
2019-04-21T10:19:44.124Z,15.70
2019-04-21T10:22:12.676Z,16.10
2019-04-21T10:24:40.898Z,15.40
2019-04-21T10:27:12.226Z,14.50
2019-04-21T10:29:42.867Z,14.50
2019-04-21T10:32:09.208Z,14.60
2019-04-21T10:34:37.512Z,15.20
2019-04-21T10:37:07.010Z,15.10
2019-04-21T10:39:35.694Z,14.90
2019-04-21T10:42:04.038Z,14.60
2019-04-21T10:44:32.290Z,15.40
2019-04-21T10:47:00.681Z,15.50
2019-04-21T10:49:29.052Z,15.20
2019-04-21T10:51:57.327Z,15.40
2019-04-21T10:54:27.230Z,15.20
2019-04-21T10:56:56.627Z,15.70
2019-04-21T10:59:25.056Z,15.40
2019-04-21T11:01:54.801Z,15.60
2019-04-21T11:04:34.664Z,14.30
2019-04-21T11:07:05.177Z,15.10
2019-04-21T11:09:29.958Z,15.80
2019-04-21T11:11:58.536Z,15.70
2019-04-21T11:14:29.288Z,15.40
2019-04-21T11:16:58.570Z,15.30
2019-04-21T11:19:26.953Z,15.10
2019-04-21T11:21:55.166Z,15.20
2019-04-21T11:24:23.409Z,15.50
2019-04-21T11:26:53.801Z,15.20
2019-04-21T11:29:23.301Z,15.70
2019-04-21T11:31:51.747Z,15.50
2019-04-21T11:34:21.031Z,16.20
2019-04-21T11:36:50.237Z,15.90
2019-04-21T11:39:37.621Z,15.70
2019-04-21T11:41:59.704Z,15.20
2019-04-21T11:44:29.070Z,14.90
2019-04-21T11:46:58.353Z,14.90
2019-04-21T11:49:30.250Z,15.50
2019-04-21T11:51:56.713Z,14.80
2019-04-21T11:54:24.921Z,14.50
2019-04-21T11:56:53.175Z,15.30
2019-04-21T11:59:21.764Z,15.40
2019-04-21T12:01:50.168Z,14.70
2019-04-21T12:04:18.553Z,14.30
2019-04-21T12:06:48.857Z,14.00
2019-04-21T12:09:16.947Z,13.90
2019-04-21T12:11:45.407Z,14.30
2019-04-21T12:14:14.268Z,14.30
2019-04-21T12:16:43.264Z,14.60
2019-04-21T12:19:12.550Z,14.50
2019-04-21T12:21:54.671Z,13.90
2019-04-21T12:24:13.157Z,13.80
2019-04-21T12:26:42.210Z,14.50
2019-04-21T12:29:11.486Z,13.80
2019-04-21T12:31:57.735Z,13.30
2019-04-21T12:34:26.021Z,14.00
2019-04-21T12:36:55.001Z,14.00
2019-04-21T12:39:23.307Z,13.60
2019-04-21T12:41:51.538Z,13.90
2019-04-21T12:44:20.488Z,13.10
2019-04-21T12:46:50.130Z,13.70
2019-04-21T12:49:18.477Z,13.30
2019-04-21T12:51:48.025Z,13.40
2019-04-21T12:54:17.551Z,13.30
2019-04-21T12:56:45.905Z,12.90
2019-04-21T12:59:14.931Z,12.90
2019-04-21T13:01:43.329Z,13.60
2019-04-21T13:04:11.661Z,13.20
2019-04-21T13:06:41.417Z,13.70
2019-04-21T13:09:13.067Z,13.80
2019-04-21T13:11:39.818Z,13.70
2019-04-21T13:14:08.297Z,13.60
2019-04-21T13:16:37.153Z,13.60
2019-04-21T13:19:05.659Z,13.40
2019-04-21T13:21:34.210Z,13.90
2019-04-21T13:24:03.079Z,13.60
2019-04-21T13:26:42.474Z,12.90
2019-04-21T13:29:02.585Z,13.00
2019-04-21T13:31:34.218Z,12.50
2019-04-21T13:34:04.071Z,13.30
2019-04-21T13:36:33.693Z,12.80
2019-04-21T13:42:02.820Z,13.50
2019-04-21T13:44:21.631Z,12.90
2019-04-21T13:46:49.879Z,13.30
2019-04-21T13:49:19.230Z,12.70
2019-04-21T13:51:48.011Z,13.90
2019-04-21T13:54:19.775Z,13.30
2019-04-21T13:56:48.278Z,13.40
2019-04-21T13:59:16.528Z,12.90
2019-04-21T14:01:45.714Z,13.50
2019-04-21T14:04:15.691Z,13.90
2019-04-21T14:06:44.693Z,14.10
2019-04-21T14:09:13.843Z,13.60
2019-04-21T14:11:43.397Z,13.70
2019-04-21T14:14:12.451Z,14.10
2019-04-21T14:16:42.222Z,13.70
2019-04-21T14:19:10.598Z,14.30
2019-04-21T14:21:39.181Z,15.20
2019-04-21T14:24:08.737Z,14.50
2019-04-21T14:26:38.406Z,14.30
2019-04-21T14:29:07.793Z,13.90
2019-04-21T14:31:36.088Z,14.70
2019-04-21T14:34:05.873Z,14.40
2019-04-21T14:36:34.946Z,14.10
2019-04-21T14:39:04.986Z,15.30
2019-04-21T14:41:33.251Z,15.20
2019-04-21T14:44:02.792Z,15.60
2019-04-21T14:46:51.387Z,16.30
2019-04-21T14:49:47.128Z,15.80
2019-04-21T14:52:36.832Z,15.30
2019-04-21T14:55:08.915Z,16.20
2019-04-21T14:57:39.135Z,16.30
2019-04-21T15:00:13.261Z,16.30
2019-04-21T15:02:41.783Z,16.70
2019-04-21T15:05:11.479Z,16.50
2019-04-21T15:07:41.305Z,16.80
2019-04-21T15:10:15.060Z,16.80
2019-04-21T15:12:39.904Z,17.00
2019-04-21T15:15:09.742Z,16.00
2019-04-21T15:17:38.223Z,17.70
2019-04-21T15:20:11.142Z,16.60
2019-04-21T15:22:36.544Z,17.90
2019-04-21T15:25:06.199Z,18.10
2019-04-21T15:27:34.886Z,18.30
2019-04-21T15:30:04.697Z,18.20
2019-04-21T15:32:33.156Z,18.90
2019-04-21T15:35:02.336Z,18.60
2019-04-21T15:37:31.700Z,19.00
2019-04-21T15:40:12.244Z,18.50
2019-04-21T15:42:30.657Z,19.00
2019-04-21T15:44:59.000Z,18.80
2019-04-21T15:47:28.292Z,19.20
2019-04-21T15:50:03.667Z,19.50
2019-04-21T15:52:27.968Z,19.10
2019-04-21T15:55:05.299Z,18.60
2019-04-21T15:57:52.197Z,19.50
2019-04-21T16:00:28.736Z,19.40
2019-04-21T16:02:58.283Z,20.10
2019-04-21T16:05:26.686Z,20.00
2019-04-21T16:07:56.053Z,20.20
2019-04-21T16:10:34.633Z,20.10
2019-04-21T16:12:55.892Z,19.80
2019-04-21T16:15:24.364Z,20.30
2019-04-21T16:17:53.211Z,20.20
2019-04-21T16:20:21.875Z,20.00
2019-04-21T16:22:50.625Z,20.10
2019-04-21T16:25:21.109Z,20.10
2019-04-21T16:27:49.386Z,20.20
2019-04-21T16:30:17.696Z,20.20
2019-04-21T16:32:46.045Z,19.90
2019-04-21T16:35:15.028Z,20.50
2019-04-21T16:37:45.727Z,20.10
2019-04-21T16:40:14.083Z,20.30
2019-04-21T16:42:42.566Z,20.10
2019-04-21T16:45:10.828Z,20.50
2019-04-21T16:47:40.009Z,20.40
2019-04-21T16:50:09.748Z,20.50
2019-04-21T16:52:40.312Z,20.40
2019-04-21T16:55:11.210Z,21.00
2019-04-21T16:57:43.898Z,21.00
2019-04-21T17:00:26.412Z,21.10
2019-04-21T17:02:43.697Z,21.30
2019-04-21T17:05:12.213Z,21.40
2019-04-21T17:07:40.955Z,21.30
2019-04-21T17:10:10.616Z,21.20
2019-04-21T17:12:39.495Z,21.10
2019-04-21T17:15:25.219Z,21.20
2019-04-21T17:18:00.751Z,20.70
2019-04-21T17:20:19.227Z,21.40
2019-04-21T17:22:39.569Z,20.80
2019-04-21T17:25:08.686Z,20.90
2019-04-21T17:27:37.003Z,21.00
2019-04-21T17:30:08.489Z,21.20
2019-04-21T17:32:42.375Z,21.60
2019-04-21T17:35:08.059Z,21.60
2019-04-21T17:37:36.441Z,21.90
2019-04-21T17:40:07.381Z,22.40
2019-04-21T17:42:44.905Z,22.50
2019-04-21T17:45:08.948Z,22.40
2019-04-21T17:47:45.734Z,22.50
2019-04-21T17:50:09.458Z,22.60
2019-04-21T17:52:45.941Z,22.90
2019-04-21T17:55:18.440Z,22.80
2019-04-21T17:58:01.286Z,22.80
2019-04-21T18:00:53.436Z,23.10
2019-04-21T18:03:07.710Z,23.60
2019-04-21T18:05:32.174Z,23.50
2019-04-21T18:08:00.085Z,23.80
2019-04-21T18:10:32.819Z,24.00
2019-04-21T18:12:52.111Z,24.20
2019-04-21T18:15:30.097Z,24.40
2019-04-21T18:17:44.861Z,24.60
2019-04-21T18:20:15.127Z,24.60
2019-04-21T18:22:50.913Z,24.90
2019-04-21T18:25:31.756Z,25.20
2019-04-21T18:27:50.431Z,25.30
2019-04-21T18:30:42.553Z,25.60
2019-04-21T18:33:21.040Z,25.90
2019-04-21T18:36:05.078Z,25.90
2019-04-21T18:39:09.826Z,26.00
2019-04-21T18:41:34.675Z,26.80
2019-04-21T18:44:36.459Z,26.50
2019-04-21T18:46:58.392Z,26.70
2019-04-21T18:49:15.306Z,26.90
2019-04-21T18:52:02.775Z,27.20
2019-04-21T18:54:41.310Z,27.20
2019-04-21T18:57:04.465Z,27.40
2019-04-21T18:59:31.342Z,27.40
2019-04-21T19:02:02.138Z,27.60
2019-04-21T19:04:30.053Z,27.70
2019-04-21T19:07:06.634Z,27.90
2019-04-21T19:10:07.300Z,28.00
2019-04-21T19:12:12.732Z,28.20
2019-04-21T19:14:39.804Z,28.20
2019-04-21T19:17:40.856Z,28.50
2019-04-21T19:22:12.908Z,28.90
2019-04-21T19:24:49.966Z,29.30
2019-04-21T19:27:19.344Z,29.70
2019-04-21T19:29:55.053Z,29.90
2019-04-21T19:32:21.138Z,30.00
2019-04-21T19:34:32.374Z,30.20
2019-04-21T19:37:04.203Z,30.40
2019-04-21T19:39:42.775Z,30.60
2019-04-21T19:42:08.593Z,30.80
2019-04-21T19:44:47.056Z,30.70
2019-04-21T19:47:15.194Z,30.80
2019-04-21T19:49:50.002Z,30.90
2019-04-21T19:52:05.206Z,31.40
2019-04-21T19:54:35.306Z,31.60
2019-04-21T19:56:57.163Z,31.60
2019-04-21T19:59:34.626Z,31.50
2019-04-21T20:01:56.189Z,31.60
2019-04-21T20:04:33.572Z,32.20
2019-04-21T20:07:02.912Z,32.90
2019-04-21T20:09:40.543Z,33.70
2019-04-21T20:12:10.699Z,34.30
2019-04-21T20:17:08.566Z,35.80
2019-04-21T20:19:24.763Z,35.80
2019-04-21T20:21:53.543Z,35.90
2019-04-21T20:24:26.534Z,36.30
2019-04-21T20:26:59.982Z,36.70
2019-04-21T20:29:37.492Z,36.70
2019-04-21T20:32:17.876Z,37.10
2019-04-21T20:34:38.646Z,37.10
2019-04-21T20:37:09.274Z,37.20
2019-04-21T20:39:25.431Z,37.30
2019-04-21T20:42:01.821Z,37.60
2019-04-21T20:44:37.453Z,37.20
2019-04-21T20:47:03.905Z,37.40
2019-04-21T20:49:34.595Z,37.60
2019-04-21T20:52:10.771Z,38.90
2019-04-21T20:54:36.873Z,38.30
2019-04-21T20:57:18.308Z,39.40
2019-04-21T20:59:31.713Z,39.70
2019-04-21T21:02:05.268Z,39.90
2019-04-21T21:04:31.734Z,40.30
2019-04-21T21:07:20.760Z,40.60
2019-04-21T21:09:35.839Z,41.10
2019-04-21T21:12:24.684Z,42.40
2019-04-21T21:14:40.965Z,43.70
2019-04-21T21:17:22.124Z,43.90
2019-04-21T21:19:43.847Z,43.40
2019-04-21T21:21:59.106Z,43.90
2019-04-21T21:24:41.960Z,43.90
2019-04-21T21:27:09.128Z,44.50
2019-04-21T21:29:33.282Z,43.90
2019-04-21T21:32:16.665Z,42.40
2019-04-21T21:34:41.182Z,42.30
2019-04-21T21:37:21.224Z,42.50
2019-04-21T21:39:49.131Z,43.10
2019-04-21T21:41:57.637Z,43.90
2019-04-21T21:44:24.533Z,44.20
2019-04-21T21:47:00.570Z,44.90
2019-04-21T21:49:35.542Z,45.20
2019-04-21T21:51:59.253Z,45.80
2019-04-21T21:54:22.032Z,46.40
2019-04-21T21:56:50.423Z,46.30
2019-04-21T21:59:22.833Z,46.90
2019-04-21T22:01:52.323Z,47.20
2019-04-21T22:04:25.939Z,47.50
2019-04-21T22:06:55.329Z,47.90
2019-04-21T22:09:18.726Z,48.00
2019-04-21T22:11:49.546Z,47.20
2019-04-21T22:14:24.662Z,47.60
2019-04-21T22:17:06.832Z,47.80
2019-04-21T22:19:36.387Z,47.80
2019-04-21T22:22:06.650Z,48.70
2019-04-21T22:24:37.009Z,48.90
2019-04-21T22:26:47.293Z,49.50
2019-04-21T22:29:19.794Z,50.40
2019-04-21T22:31:48.381Z,50.50
2019-04-21T22:34:21.855Z,50.70
2019-04-21T22:36:56.035Z,50.20
2019-04-21T22:39:35.038Z,49.90
2019-04-21T22:41:49.225Z,50.00
2019-04-21T22:44:16.815Z,50.00
2019-04-21T22:46:54.797Z,50.20
2019-04-21T22:49:16.518Z,50.00
2019-04-21T22:51:48.798Z,49.70
2019-04-21T22:54:22.165Z,49.80
2019-04-21T22:56:53.567Z,50.10
2019-04-21T22:59:20.242Z,50.10
2019-04-21T23:01:49.908Z,50.00
2019-04-21T23:04:15.940Z,50.10
2019-04-21T23:06:44.519Z,50.60
2019-04-21T23:09:12.968Z,51.20
2019-04-21T23:11:45.624Z,50.50
2019-04-21T23:14:13.429Z,49.80
2019-04-21T23:16:44.741Z,49.60
2019-04-21T23:19:28.094Z,51.40
2019-04-21T23:21:57.869Z,52.10
2019-04-21T23:24:34.916Z,52.30
2019-04-21T23:26:53.785Z,52.50
2019-04-21T23:29:39.233Z,52.80
2019-04-21T23:32:01.935Z,52.60
2019-04-21T23:34:19.761Z,53.30
2019-04-21T23:36:49.105Z,54.10
2019-04-21T23:39:16.065Z,54.40
2019-04-21T23:41:46.026Z,54.70
2019-04-21T23:44:13.558Z,54.90
2019-04-21T23:46:42.149Z,55.20
2019-04-21T23:49:21.644Z,55.70
2019-04-21T23:51:50.043Z,55.70
2019-04-21T23:54:11.390Z,55.70
2019-04-21T23:56:43.995Z,56.10
2019-04-21T23:59:11.602Z,56.70
